createdAt,value
2022-08-09T00:00:28.046Z,3.75
2022-08-09T00:02:54.383Z,3.17
2022-08-09T00:06:17.977Z,3.08
2022-08-09T00:08:11.471Z,2.92
2022-08-09T00:10:55.040Z,3.97
2022-08-09T00:13:24.386Z,3.80
2022-08-09T00:15:59.092Z,3.42
2022-08-09T00:18:28.906Z,3.00
2022-08-09T00:20:55.139Z,3.15
2022-08-09T00:23:55.355Z,4.25
2022-08-09T00:26:08.833Z,3.72
2022-08-09T00:28:38.025Z,3.10
2022-08-09T00:31:30.369Z,3.35
2022-08-09T00:33:52.462Z,3.65
2022-08-09T00:36:19.555Z,3.03
2022-08-09T00:38:45.764Z,3.70
2022-08-09T00:44:13.033Z,2.88
2022-08-09T00:44:19.479Z,3.28
2022-08-09T00:46:56.942Z,3.10
2022-08-09T00:49:28.208Z,3.35
2022-08-09T00:51:57.187Z,3.22
2022-08-09T00:54:31.524Z,3.75
2022-08-09T00:57:02.055Z,3.60
2022-08-09T00:59:41.471Z,3.40
2022-08-09T01:02:24.424Z,3.50
2022-08-09T01:05:13.750Z,3.88
2022-08-09T01:08:00.690Z,3.22
2022-08-09T01:10:51.153Z,3.30
2022-08-09T01:13:41.912Z,3.58
2022-08-09T01:16:26.942Z,3.40
2022-08-09T01:19:04.889Z,3.20
2022-08-09T01:21:51.249Z,3.20
2022-08-09T01:24:40.157Z,3.10
2022-08-09T01:27:12.702Z,3.15
2022-08-09T01:29:56.741Z,3.40
2022-08-09T01:32:38.649Z,3.30
2022-08-09T01:35:38.274Z,3.47
2022-08-09T01:38:15.438Z,3.90
2022-08-09T01:40:52.918Z,3.38
2022-08-09T01:43:47.943Z,3.60
2022-08-09T01:46:24.811Z,3.20
2022-08-09T01:48:54.364Z,3.45
2022-08-09T01:51:22.579Z,3.30
2022-08-09T01:53:50.128Z,3.05
2022-08-09T01:56:21.333Z,3.35
2022-08-09T01:58:50.494Z,3.45
2022-08-09T02:01:19.007Z,3.88
2022-08-09T02:03:49.407Z,3.13
2022-08-09T02:06:39.383Z,3.60
2022-08-09T02:09:14.255Z,3.28
2022-08-09T02:11:43.850Z,3.60
2022-08-09T02:14:15.034Z,3.35
2022-08-09T02:17:15.006Z,3.40
2022-08-09T02:19:43.428Z,3.58
2022-08-09T02:22:16.512Z,3.33
2022-08-09T02:24:51.800Z,3.40
2022-08-09T02:27:20.230Z,3.75
2022-08-09T02:30:08.680Z,3.33
2022-08-09T02:32:39.304Z,3.40
2022-08-09T02:35:17.197Z,3.58
2022-08-09T02:37:46.792Z,3.50
2022-08-09T02:40:18.557Z,3.60
2022-08-09T02:42:55.078Z,3.25
2022-08-09T02:45:35.559Z,3.22
2022-08-09T02:48:19.400Z,3.60
2022-08-09T02:50:58.948Z,3.30
2022-08-09T02:53:39.711Z,3.30
2022-08-09T02:56:11.206Z,3.90
2022-08-09T02:58:39.257Z,3.28
2022-08-09T03:01:10.649Z,3.45
2022-08-09T03:04:17.940Z,3.65
2022-08-09T03:06:27.493Z,3.50
2022-08-09T03:08:54.669Z,3.17
2022-08-09T03:12:06.362Z,3.47
2022-08-09T03:14:10.062Z,3.60
2022-08-09T03:16:41.679Z,3.75
2022-08-09T03:19:14.322Z,3.45
2022-08-09T03:21:58.085Z,3.53
2022-08-09T03:24:42.136Z,3.42
2022-08-09T03:27:10.860Z,3.43
2022-08-09T03:29:57.238Z,3.50
2022-08-09T03:32:26.125Z,3.75
2022-08-09T03:34:54.123Z,3.85
2022-08-09T03:37:54.745Z,3.60
2022-08-09T03:40:09.152Z,3.80
2022-08-09T03:42:39.774Z,3.55
2022-08-09T03:45:09.894Z,3.60
2022-08-09T03:47:36.730Z,4.03
2022-08-09T03:50:09.243Z,3.78
2022-08-09T03:52:40.580Z,3.47
2022-08-09T03:55:09.904Z,3.90
2022-08-09T03:57:44.737Z,3.65
2022-08-09T04:00:25.916Z,3.60
2022-08-09T04:02:54.052Z,3.40
2022-08-09T04:05:27.945Z,3.45
2022-08-09T04:07:57.256Z,3.60
2022-08-09T04:10:29.027Z,3.10
2022-08-09T04:12:56.155Z,3.45
2022-08-09T04:15:42.562Z,3.45
2022-08-09T04:18:17.962Z,3.72
2022-08-09T04:20:44.564Z,3.85
2022-08-09T04:23:16.702Z,4.03
2022-08-09T04:25:43.140Z,3.80
2022-08-09T04:28:09.267Z,3.67
2022-08-09T04:30:38.567Z,3.67
2022-08-09T04:33:10.981Z,3.58
2022-08-09T04:35:40.080Z,4.30
2022-08-09T04:38:09.563Z,3.45
2022-08-09T04:40:56.335Z,3.50
2022-08-09T04:43:23.339Z,3.85
2022-08-09T04:45:53.592Z,3.75
2022-08-09T04:48:20.239Z,3.17
2022-08-09T04:50:46.549Z,3.35
2022-08-09T04:53:16.214Z,3.60
2022-08-09T04:55:59.069Z,3.58
2022-08-09T04:58:31.563Z,3.95
2022-08-09T05:00:58.255Z,3.60
2022-08-09T05:03:40.525Z,3.25
2022-08-09T05:06:11.507Z,3.55
2022-08-09T05:08:37.633Z,3.80
2022-08-09T05:11:07.627Z,4.40
2022-08-09T11:19:11.872Z,2.50
2022-08-09T11:22:05.069Z,2.28
2022-08-09T11:24:57.690Z,2.50
2022-08-09T11:28:03.890Z,2.92
2022-08-09T11:30:32.818Z,2.20
2022-08-09T11:33:18.472Z,2.28
2022-08-09T11:35:58.659Z,2.35
2022-08-09T11:38:34.788Z,2.28
2022-08-09T11:41:10.278Z,2.67
2022-08-09T11:43:47.259Z,2.20
2022-08-09T11:46:26.692Z,2.40
2022-08-09T11:48:59.650Z,2.35
2022-08-09T11:52:54.089Z,1.85
2022-08-09T11:54:28.152Z,2.25
2022-08-09T11:58:00.061Z,2.30
2022-08-09T12:00:27.234Z,2.13
2022-08-09T12:02:54.463Z,2.30
2022-08-09T12:05:23.108Z,2.35
2022-08-09T12:07:49.785Z,2.30
2022-08-09T12:10:38.486Z,2.25
2022-08-09T12:14:06.952Z,2.25
2022-08-09T12:15:52.298Z,2.25
2022-08-09T12:18:30.258Z,2.75
2022-08-09T12:21:03.215Z,2.60
2022-08-09T12:23:56.618Z,2.30
2022-08-09T12:26:19.648Z,2.67
2022-08-09T12:29:15.498Z,2.30
2022-08-09T12:31:59.013Z,2.70
2022-08-09T12:34:36.708Z,2.13
2022-08-09T12:40:26.879Z,2.30
2022-08-09T12:42:54.181Z,2.30
2022-08-09T12:45:32.344Z,1.75
2022-08-09T12:48:01.292Z,2.00
2022-08-09T12:50:28.614Z,1.85
2022-08-09T12:53:07.959Z,2.10
2022-08-09T12:56:16.450Z,2.10
2022-08-09T12:58:24.132Z,1.83
2022-08-09T13:00:53.349Z,2.28
2022-08-09T13:03:53.489Z,1.98
2022-08-09T13:06:38.834Z,2.03
2022-08-09T13:09:26.249Z,2.05
2022-08-09T13:12:03.174Z,1.90
2022-08-09T13:14:40.893Z,1.80
2022-08-09T13:17:16.575Z,3.90
2022-08-09T13:20:16.047Z,2.38
2022-08-09T13:23:05.780Z,1.90
2022-08-09T13:25:53.022Z,2.00
2022-08-09T13:28:24.501Z,2.13
2022-08-09T13:32:20.266Z,1.98
2022-08-09T13:33:56.862Z,2.00
2022-08-09T13:36:38.129Z,2.30
2022-08-09T13:41:50.735Z,2.00
2022-08-09T13:42:01.910Z,2.20
2022-08-09T13:44:29.334Z,2.38
2022-08-09T13:47:27.371Z,2.13
2022-08-09T13:49:56.255Z,1.73
2022-08-09T13:52:24.672Z,1.73
2022-08-09T13:54:59.750Z,1.70
2022-08-09T13:57:35.622Z,2.53
2022-08-09T14:00:02.689Z,1.67
2022-08-09T14:02:42.480Z,2.08
2022-08-09T14:05:57.411Z,2.00
2022-08-09T14:08:10.251Z,1.80
2022-08-09T14:10:46.335Z,1.80
2022-08-09T14:13:28.094Z,1.60
2022-08-09T14:16:10.067Z,2.30
2022-08-09T14:18:36.919Z,1.70
2022-08-09T14:21:03.037Z,1.88
2022-08-09T14:23:40.165Z,2.10
2022-08-09T14:26:12.976Z,1.77
2022-08-09T14:28:39.778Z,1.77
2022-08-09T14:31:07.007Z,1.75
2022-08-09T14:33:38.289Z,2.20
2022-08-09T14:36:12.134Z,1.92
2022-08-09T14:38:46.307Z,1.80
2022-08-09T14:41:26.752Z,2.28
2022-08-09T14:44:01.395Z,1.67
2022-08-09T14:46:57.104Z,1.90
2022-08-09T14:49:16.264Z,2.17
2022-08-09T14:51:42.804Z,1.80
2022-08-09T14:54:09.549Z,1.77
2022-08-09T14:56:36.248Z,1.85
2022-08-09T14:59:22.315Z,1.67
2022-08-09T15:01:49.870Z,2.00
2022-08-09T15:04:16.001Z,1.80
2022-08-09T15:06:42.121Z,1.40
2022-08-09T15:09:15.888Z,1.95
2022-08-09T15:12:02.000Z,1.70
2022-08-09T15:14:33.722Z,1.48
2022-08-09T15:17:00.302Z,1.70
2022-08-09T15:19:30.858Z,2.17
2022-08-09T15:22:02.858Z,1.77
2022-08-09T15:24:29.210Z,1.70
2022-08-09T15:26:55.351Z,1.77
2022-08-09T15:30:56.677Z,1.88
2022-08-09T15:32:28.971Z,1.80
2022-08-09T15:34:54.314Z,1.50
2022-08-09T15:37:37.058Z,1.52
2022-08-09T15:40:06.878Z,1.98
2022-08-09T15:42:38.939Z,1.88
2022-08-09T15:45:07.239Z,1.55
2022-08-09T15:47:51.828Z,1.60
2022-08-09T15:50:23.435Z,1.83
2022-08-09T15:53:06.362Z,1.70
2022-08-09T15:56:04.209Z,1.90
2022-08-09T15:58:26.430Z,1.80
2022-08-09T16:00:53.461Z,1.40
2022-08-09T16:03:29.735Z,1.85
2022-08-09T16:06:06.407Z,1.73
2022-08-09T16:08:32.724Z,1.98
2022-08-09T16:11:01.727Z,1.83
2022-08-09T16:14:02.714Z,1.90
2022-08-09T16:16:18.388Z,1.85
2022-08-09T16:18:48.022Z,1.67
2022-08-09T16:21:17.477Z,1.60
2022-08-09T16:23:55.974Z,1.60
2022-08-09T16:26:35.101Z,1.60
2022-08-09T16:29:10.662Z,1.70
2022-08-09T16:32:19.085Z,1.60
2022-08-09T16:34:24.937Z,1.65
2022-08-09T16:36:51.086Z,1.88
2022-08-09T16:39:17.225Z,1.45
2022-08-09T16:42:03.473Z,1.67
2022-08-09T16:44:31.684Z,1.50
2022-08-09T16:47:03.875Z,1.73
2022-08-09T16:50:31.064Z,1.80
2022-08-09T16:52:30.398Z,1.58
2022-08-09T16:54:56.531Z,1.67
2022-08-09T16:57:23.100Z,2.72
2022-08-09T16:59:50.240Z,2.95
2022-08-09T17:02:23.851Z,3.53
2022-08-09T17:04:51.733Z,2.97
2022-08-09T17:08:44.322Z,2.13
2022-08-09T17:10:13.558Z,2.17
2022-08-09T17:12:42.285Z,2.30
2022-08-09T17:15:30.526Z,2.10
2022-08-09T17:18:00.677Z,2.03
2022-08-09T17:20:29.706Z,2.28
2022-08-09T17:23:03.483Z,2.03
2022-08-09T17:25:31.217Z,1.90
2022-08-09T17:28:05.629Z,2.38
2022-08-09T17:30:32.496Z,1.60
2022-08-09T17:33:05.710Z,1.73
2022-08-09T17:35:48.329Z,1.80
2022-08-09T17:38:32.293Z,1.83
2022-08-09T17:41:02.140Z,2.33
2022-08-09T17:43:33.954Z,1.70
2022-08-09T17:46:06.246Z,2.05
2022-08-09T17:48:39.743Z,2.28
2022-08-09T17:51:17.153Z,2.22
2022-08-09T17:53:51.546Z,2.10
2022-08-09T17:58:46.448Z,1.90
2022-08-09T18:01:15.419Z,2.15
2022-08-09T18:03:49.341Z,2.30
2022-08-09T18:06:28.801Z,2.83
2022-08-09T18:08:59.675Z,2.95
2022-08-09T18:11:26.332Z,2.40
2022-08-09T18:13:58.199Z,2.40
2022-08-09T18:16:30.532Z,2.00
2022-08-09T18:19:04.197Z,1.95
2022-08-09T18:21:50.343Z,2.38
2022-08-09T18:24:18.882Z,2.20
2022-08-09T18:26:46.609Z,2.20
2022-08-09T18:30:42.912Z,2.28
2022-08-09T18:31:59.552Z,2.35
2022-08-09T18:34:29.006Z,2.53
2022-08-09T18:36:55.528Z,2.10
2022-08-09T18:39:25.762Z,2.50
2022-08-09T18:41:59.155Z,2.40
2022-08-09T18:44:25.758Z,2.80
2022-08-09T18:47:07.839Z,2.65
2022-08-09T18:49:41.538Z,2.53
2022-08-09T18:52:10.056Z,2.60
2022-08-09T18:54:37.755Z,2.08
2022-08-09T18:57:05.984Z,2.35
2022-08-09T18:59:48.426Z,2.33
2022-08-09T19:02:15.385Z,2.40
2022-08-09T19:04:41.565Z,2.40
2022-08-09T19:07:16.458Z,2.58
2022-08-09T19:10:15.599Z,2.30
2022-08-09T19:12:30.394Z,2.30
2022-08-09T19:14:57.344Z,3.60
2022-08-09T19:17:23.465Z,2.17
2022-08-09T19:19:58.621Z,2.70
2022-08-09T19:22:27.166Z,2.17
2022-08-09T19:25:09.211Z,2.67
2022-08-09T19:27:39.936Z,2.67
2022-08-09T19:30:22.514Z,2.15
2022-08-09T19:32:53.667Z,2.47
2022-08-09T19:35:26.220Z,2.13
2022-08-09T19:37:56.218Z,2.38
2022-08-09T19:40:24.431Z,2.72
2022-08-09T19:43:00.258Z,2.30
2022-08-09T19:45:27.305Z,2.33
2022-08-09T19:48:05.707Z,2.35
2022-08-09T19:50:50.227Z,2.13
2022-08-09T19:53:20.700Z,2.35
2022-08-09T19:56:02.367Z,2.13
2022-08-09T19:58:32.096Z,2.75
2022-08-09T20:00:58.804Z,2.63
2022-08-09T20:04:11.625Z,3.28
2022-08-09T20:06:23.559Z,2.65
2022-08-09T20:08:57.246Z,2.50
2022-08-09T20:11:25.906Z,2.50
2022-08-09T20:13:54.338Z,2.13
2022-08-09T20:16:33.584Z,2.47
2022-08-09T20:19:48.704Z,2.10
2022-08-09T20:21:56.277Z,2.25
2022-08-09T20:24:29.528Z,2.20
2022-08-09T20:26:59.856Z,2.00
2022-08-09T20:29:31.092Z,2.30
2022-08-09T20:32:31.341Z,2.30
2022-08-09T20:34:50.732Z,2.20
2022-08-09T20:37:17.598Z,2.38
2022-08-09T20:40:16.161Z,2.30
2022-08-09T20:42:35.279Z,2.33
2022-08-09T20:45:57.082Z,2.03
2022-08-09T20:47:50.645Z,2.33
2022-08-09T20:50:47.746Z,2.50
2022-08-09T20:53:02.903Z,2.15
2022-08-09T20:55:29.673Z,2.50
2022-08-09T20:58:20.298Z,2.47
2022-08-09T21:01:01.982Z,2.67
2022-08-09T21:03:28.648Z,2.38
2022-08-09T21:06:05.782Z,2.58
2022-08-09T21:08:36.379Z,2.25
2022-08-09T21:11:03.069Z,2.60
2022-08-09T21:13:45.755Z,2.33
2022-08-09T21:16:19.780Z,2.20
2022-08-09T21:20:04.317Z,2.20
2022-08-09T21:21:46.310Z,2.00
2022-08-09T21:24:19.262Z,2.17
2022-08-09T21:26:51.495Z,2.35
2022-08-09T21:29:22.792Z,2.10
2022-08-09T21:31:49.817Z,2.20
2022-08-09T21:34:28.680Z,2.80
2022-08-09T21:36:56.515Z,2.15
2022-08-09T21:39:27.894Z,2.40
2022-08-09T21:42:04.871Z,2.42
2022-08-09T21:44:35.316Z,2.47
2022-08-09T21:47:08.829Z,2.30
2022-08-09T21:49:40.100Z,2.45
2022-08-09T21:52:08.027Z,3.25
2022-08-09T21:57:25.149Z,2.55
2022-08-09T21:59:58.329Z,2.90
2022-08-09T22:02:36.071Z,2.45
2022-08-09T22:05:16.711Z,2.63
2022-08-09T22:07:52.235Z,3.08
2022-08-09T22:10:22.133Z,2.50
2022-08-09T22:12:50.320Z,2.40
2022-08-09T22:15:16.980Z,2.70
2022-08-09T22:17:45.968Z,2.25
2022-08-09T22:20:21.533Z,2.72
2022-08-09T22:22:48.727Z,2.70
2022-08-09T22:26:05.422Z,2.55
2022-08-09T22:28:01.242Z,2.75
2022-08-09T22:30:33.669Z,2.63
2022-08-09T22:32:59.839Z,3.10
2022-08-09T22:36:02.591Z,2.60
2022-08-09T22:38:14.796Z,2.80
2022-08-09T22:40:49.104Z,3.03
2022-08-09T22:44:00.635Z,2.80
2022-08-09T22:48:16.315Z,2.60
2022-08-09T22:48:55.707Z,2.58
2022-08-09T22:51:28.085Z,3.28
2022-08-09T22:53:58.416Z,2.97
2022-08-09T22:56:33.387Z,2.87
2022-08-09T22:59:01.360Z,2.83
2022-08-09T23:01:33.133Z,3.17
2022-08-09T23:04:03.445Z,2.58
2022-08-09T23:06:52.242Z,2.65
2022-08-09T23:09:18.357Z,3.10
2022-08-09T23:11:44.475Z,3.15
2022-08-09T23:14:17.177Z,3.20
2022-08-09T23:16:43.821Z,3.40
2022-08-09T23:19:09.939Z,2.95
2022-08-09T23:21:36.760Z,3.20
2022-08-09T23:24:07.159Z,3.30
2022-08-09T23:26:38.169Z,3.13
2022-08-09T23:29:05.817Z,3.78
2022-08-09T23:31:32.518Z,3.20
2022-08-09T23:33:58.649Z,3.83
2022-08-09T23:36:24.775Z,2.90
2022-08-09T23:38:50.906Z,3.28
2022-08-09T23:41:28.786Z,3.10
2022-08-09T23:43:55.572Z,3.17
2022-08-09T23:46:22.277Z,3.15
2022-08-09T23:48:48.393Z,3.13
2022-08-09T23:51:14.525Z,3.30
2022-08-09T23:53:40.702Z,3.15
2022-08-09T23:56:06.904Z,3.17
2022-08-09T23:58:33.141Z,3.00
